Time;durP1;ratioP1;P1;durP2;ratioP2;P2;SDS_P1;SDS_P2;PMS_P1;PMS_P2;Temp;Humidity;BMP_temperature;BMP_pressure;BME280_temperature;BME280_humidity;BME280_pressure;Samples;Min_cycle;Max_cycle;Signal;HPM_P1;HPM_P2
2023/02/05 00:02:25;;;;;;;13.27;8.10;;;;;;;2.15;100.00;100180.19;5032928;28;20212;-76
2023/02/05 00:04:52;;;;;;;15.17;8.83;;;;;;;2.12;100.00;100186.28;5032995;28;20589;-76
2023/02/05 00:07:18;;;;;;;15.17;8.47;;;;;;;2.12;100.00;100194.09;5032935;28;20244;-76
2023/02/05 00:09:46;;;;;;;11.77;7.77;;;;;;;2.12;100.00;100194.09;5032279;28;20215;-76
2023/02/05 00:12:12;;;;;;;11.73;8.23;;;;;;;2.18;100.00;100201.91;5032434;28;20212;-76
2023/02/05 00:14:39;;;;;;;11.77;8.03;;;;;;;2.15;100.00;100185.41;5032196;28;20573;-75
2023/02/05 00:17:05;;;;;;;11.33;7.60;;;;;;;2.11;100.00;100184.56;5032596;28;20215;-75
2023/02/05 00:19:32;;;;;;;11.40;7.53;;;;;;;2.06;100.00;100174.97;5031977;28;20225;-76
2023/02/05 00:21:58;;;;;;;12.87;8.27;;;;;;;2.05;100.00;100179.34;5032148;28;20212;-76
2023/02/05 00:24:25;;;;;;;10.00;7.97;;;;;;;2.10;100.00;100181.94;5032176;28;20201;-76
2023/02/05 00:26:53;;;;;;;10.27;7.73;;;;;;;2.04;100.00;100171.53;5032161;28;20244;-76
2023/02/05 00:29:19;;;;;;;12.73;8.10;;;;;;;2.04;100.00;100177.63;5031699;28;20213;-76
2023/02/05 00:31:48;;;;;;;8.90;6.47;;;;;;;2.05;100.00;100168.03;5032205;28;20229;-76
2023/02/05 00:34:15;;;;;;;8.67;7.33;;;;;;;2.04;100.00;100172.41;5032054;28;20233;-77
2023/02/05 00:36:41;;;;;;;13.90;7.60;;;;;;;2.02;100.00;100158.47;5032103;28;20215;-76
2023/02/05 00:39:10;;;;;;;10.20;6.97;;;;;;;2.04;100.00;100166.31;5031804;28;20232;-76
2023/02/05 00:41:36;;;;;;;11.70;7.37;;;;;;;2.05;100.00;100171.53;5031790;28;20311;-76
2023/02/05 00:44:05;;;;;;;12.23;7.23;;;;;;;2.08;100.00;100166.28;5031845;28;20253;-76
2023/02/05 00:46:31;;;;;;;11.93;7.40;;;;;;;2.06;100.00;100165.44;5031745;28;20213;-76
2023/02/05 00:48:58;;;;;;;9.00;6.60;;;;;;;2.08;100.00;100168.03;5031643;28;20626;-76
2023/02/05 00:51:24;;;;;;;9.13;7.40;;;;;;;2.04;100.00;100171.53;5031431;28;20233;-76
2023/02/05 00:53:51;;;;;;;10.30;7.43;;;;;;;2.03;100.00;100175.84;5031634;28;20234;-75
2023/02/05 00:56:17;;;;;;;11.57;7.27;;;;;;;2.05;100.00;100173.25;5031468;28;20217;-76
2023/02/05 00:58:46;;;;;;;9.20;6.53;;;;;;;2.03;100.00;100170.63;5031538;28;20622;-77
2023/02/05 01:01:14;;;;;;;10.33;6.63;;;;;;;2.04;100.00;100169.78;5031298;28;20237;-76
2023/02/05 01:03:41;;;;;;;11.27;6.67;;;;;;;2.00;100.00;100168.06;5031569;28;20205;-76
2023/02/05 01:06:08;;;;;;;12.13;7.20;;;;;;;1.99;100.00;100158.50;5031388;28;20356;-76
2023/02/05 01:08:35;;;;;;;8.00;6.63;;;;;;;1.95;100.00;100156.78;5031478;28;20209;-76
2023/02/05 01:11:05;;;;;;;7.97;6.73;;;;;;;2.00;100.00;100160.22;5030326;28;20727;-75
2023/02/05 01:13:31;;;;;;;9.87;6.90;;;;;;;2.01;100.00;100156.75;5031188;28;20229;-76
2023/02/05 01:15:58;;;;;;;9.67;6.87;;;;;;;1.99;100.00;100161.13;5031494;28;20216;-76
2023/02/05 01:18:26;;;;;;;11.20;6.83;;;;;;;1.95;100.00;100158.50;5031477;28;20216;-76
2023/02/05 01:20:52;;;;;;;9.33;6.90;;;;;;;1.97;100.00;100149.78;5031013;28;20245;-75
2023/02/05 01:23:19;;;;;;;10.03;6.97;;;;;;;2.00;100.00;100144.59;5031018;28;20220;-75
2023/02/05 01:25:45;;;;;;;14.17;8.37;;;;;;;2.04;100.00;100141.09;5031598;28;20208;-76
2023/02/05 01:28:12;;;;;;;10.57;7.10;;;;;;;2.05;100.00;100137.63;5031348;28;20624;-76
2023/02/05 01:30:38;;;;;;;9.57;6.33;;;;;;;2.06;100.00;100138.47;5030887;28;20238;-76
2023/02/05 01:33:05;;;;;;;7.63;6.67;;;;;;;2.01;100.00;100148.03;5031181;28;20235;-76
2023/02/05 01:35:33;;;;;;;11.20;7.47;;;;;;;1.98;100.00;100138.53;5030887;28;20239;-76
2023/02/05 01:37:59;;;;;;;10.67;7.17;;;;;;;2.01;100.00;100141.09;5031141;28;20271;-76
2023/02/05 01:40:26;;;;;;;14.23;7.30;;;;;;;2.01;100.00;100138.50;5031128;28;20225;-76
2023/02/05 01:42:52;;;;;;;10.57;6.70;;;;;;;2.04;100.00;100135.00;5031238;28;20219;-76
2023/02/05 01:45:55;;;;;;;9.23;6.80;;;;;;;2.09;100.00;100123.69;5031291;28;20534;-77
2023/02/05 01:48:26;;;;;;;9.57;7.13;;;;;;;2.10;100.00;100127.16;5031081;28;20212;-76
2023/02/05 01:50:59;;;;;;;10.10;6.57;;;;;;;2.10;100.00;100117.63;5030857;28;20228;-77
2023/02/05 01:53:29;;;;;;;10.67;6.97;;;;;;;2.14;100.00;100115.84;5031257;28;20563;-76
2023/02/05 01:55:58;;;;;;;8.53;6.40;;;;;;;2.16;100.00;100117.59;5031482;28;20227;-75
2023/02/05 01:58:28;;;;;;;8.67;7.17;;;;;;;2.13;100.00;100112.38;5031023;28;20686;-75
2023/02/05 02:00:55;;;;;;;10.80;7.00;;;;;;;2.12;100.00;100108.03;5028422;28;20240;-75
2023/02/05 02:03:26;;;;;;;9.87;6.50;;;;;;;2.07;100.00;100099.34;5028309;28;20217;-75
2023/02/05 02:05:54;;;;;;;7.30;6.27;;;;;;;2.05;100.00;100102.84;5029141;28;20204;-76
2023/02/05 02:08:21;;;;;;;7.83;6.50;;;;;;;1.99;100.00;100098.53;5030917;28;20402;-75
2023/02/05 02:10:49;;;;;;;10.23;7.07;;;;;;;1.98;100.00;100093.31;5030594;28;20593;-76
2023/02/05 02:13:18;;;;;;;8.73;6.70;;;;;;;1.92;100.00;100094.22;5030732;28;20208;-76
2023/02/05 02:15:46;;;;;;;9.23;6.70;;;;;;;1.86;100.00;100089.03;5030798;28;20733;-75
2023/02/05 02:18:28;;;;;;;12.43;7.13;;;;;;;1.83;100.00;100083.81;5031049;28;20216;-75
2023/02/05 02:21:18;;;;;;;9.77;6.97;;;;;;;1.81;100.00;100084.69;5030414;28;20233;-76
2023/02/05 02:24:01;;;;;;;11.40;7.03;;;;;;;1.76;100.00;100084.69;5032907;28;20213;-77
2023/02/05 02:26:46;;;;;;;10.67;7.43;;;;;;;1.66;100.00;100079.53;5034641;28;20215;-76
2023/02/05 02:29:20;;;;;;;11.93;7.63;;;;;;;1.66;100.00;100080.38;5034288;28;20208;-76
2023/02/05 02:31:54;;;;;;;9.70;6.73;;;;;;;1.69;100.00;100079.50;5034360;28;20235;-76
2023/02/05 02:34:29;;;;;;;7.67;6.50;;;;;;;1.70;100.00;100082.13;5034142;28;20239;-76
2023/02/05 02:37:01;;;;;;;10.83;7.27;;;;;;;1.67;100.00;100087.31;5034377;28;20220;-77
2023/02/05 02:39:33;;;;;;;8.90;6.70;;;;;;;1.64;100.00;100073.44;5034087;28;20220;-77
2023/02/05 02:42:03;;;;;;;7.53;6.53;;;;;;;1.63;100.00;100069.97;5034272;28;20209;-76
2023/02/05 02:44:37;;;;;;;8.47;5.90;;;;;;;1.59;100.00;100068.25;5034178;28;20299;-76
2023/02/05 02:47:07;;;;;;;8.70;6.93;;;;;;;1.61;100.00;100069.09;5033945;28;20215;-76
2023/02/05 02:49:39;;;;;;;9.37;7.43;;;;;;;1.65;100.00;100070.84;5033782;28;20227;-76
2023/02/05 02:52:08;;;;;;;9.93;7.47;;;;;;;1.72;100.00;100061.28;5034030;28;20212;-76
2023/02/05 02:54:37;;;;;;;13.50;7.27;;;;;;;1.82;100.00;100063.81;5033842;28;20245;-76
2023/02/05 02:57:07;;;;;;;10.33;6.93;;;;;;;1.86;100.00;100057.72;5033834;28;20560;-76
2023/02/05 02:59:38;;;;;;;10.07;6.53;;;;;;;1.91;100.00;100053.34;5033954;28;20210;-77
2023/02/05 03:02:09;;;;;;;8.83;6.47;;;;;;;1.92;100.00;100057.72;5034095;28;20216;-76
2023/02/05 03:04:38;;;;;;;12.00;7.53;;;;;;;1.92;100.00;100067.25;5033815;28;20564;-76
2023/02/05 03:07:18;;;;;;;8.97;6.23;;;;;;;1.97;100.00;100061.13;5033634;28;20645;-76
2023/02/05 03:09:51;;;;;;;7.83;6.50;;;;;;;1.99;100.00;100055.91;5033248;28;20224;-76
2023/02/05 03:12:19;;;;;;;8.53;6.93;;;;;;;1.96;100.00;100054.19;5033568;28;20213;-76
2023/02/05 03:14:47;;;;;;;8.00;5.63;;;;;;;1.94;100.00;100055.94;5033429;28;20597;-76
2023/02/05 03:17:17;;;;;;;8.87;7.00;;;;;;;1.84;100.00;100056.00;5033361;28;20212;-76
2023/02/05 03:19:44;;;;;;;10.73;7.00;;;;;;;1.78;100.00;100049.06;5033209;28;20651;-76
2023/02/05 03:22:11;;;;;;;8.57;6.33;;;;;;;1.78;100.00;100054.28;5033225;28;20213;-76
2023/02/05 03:24:38;;;;;;;9.47;6.57;;;;;;;1.84;100.00;100054.25;5033635;28;20216;-76
2023/02/05 03:27:05;;;;;;;8.67;6.57;;;;;;;1.88;100.00;100055.97;5033436;28;20224;-76
2023/02/05 03:29:37;;;;;;;9.20;6.63;;;;;;;1.91;100.00;100048.13;5032943;28;20256;-76
2023/02/05 03:32:17;;;;;;;7.20;5.80;;;;;;;1.86;100.00;100051.63;5033230;28;20239;-76
2023/02/05 03:34:57;;;;;;;6.43;5.77;;;;;;;1.80;100.00;100047.34;5032525;28;20240;-76
2023/02/05 03:37:35;;;;;;;9.93;7.27;;;;;;;1.81;100.00;100035.16;5033354;28;20209;-76
2023/02/05 03:40:09;;;;;;;8.63;6.40;;;;;;;1.80;100.00;100023.00;5032893;28;20270;-76
2023/02/05 03:42:43;;;;;;;7.93;6.43;;;;;;;1.75;100.00;100020.41;5033308;28;20573;-76
2023/02/05 03:45:34;;;;;;;9.30;6.27;;;;;;;1.66;100.00;100023.03;5032934;28;20219;-76
2023/02/05 03:48:32;;;;;;;7.43;5.87;;;;;;;1.53;100.00;100016.16;5033058;28;20213;-76
2023/02/05 03:51:11;;;;;;;8.27;6.17;;;;;;;1.40;100.00;100024.88;5032657;28;20228;-76
2023/02/05 03:53:46;;;;;;;9.20;6.80;;;;;;;1.27;100.00;100033.59;5033035;28;20213;-76
2023/02/05 03:56:17;;;;;;;10.70;7.20;;;;;;;1.11;100.00;100026.69;5032853;28;20223;-76
2023/02/05 03:58:48;;;;;;;9.60;6.83;;;;;;;1.06;100.00;100024.97;5032579;28;20222;-76
2023/02/05 04:01:15;;;;;;;10.13;6.90;;;;;;;1.04;100.00;100022.34;5032349;28;20726;-76
2023/02/05 04:03:42;;;;;;;9.93;6.97;;;;;;;1.06;100.00;100018.00;5032858;28;20208;-76
2023/02/05 04:06:09;;;;;;;11.13;7.87;;;;;;;1.02;100.00;100011.09;5032873;28;20221;-76
2023/02/05 04:08:36;;;;;;;10.27;7.70;;;;;;;0.95;100.00;100000.69;5032305;28;20216;-76
2023/02/05 04:11:03;;;;;;;9.47;7.60;;;;;;;0.93;100.00;100000.66;5032222;28;20221;-76
2023/02/05 04:13:29;;;;;;;9.63;7.50;;;;;;;0.92;100.00;100001.53;5032301;28;20219;-76
2023/02/05 04:15:56;;;;;;;8.37;7.37;;;;;;;0.91;100.00;100005.03;5032292;28;20229;-76
2023/02/05 04:18:22;;;;;;;8.13;6.90;;;;;;;0.90;100.00;100012.81;5032235;28;20285;-76
2023/02/05 04:20:50;;;;;;;9.30;6.73;;;;;;;0.90;100.00;100011.09;5032026;28;20233;-76
2023/02/05 04:23:16;;;;;;;10.00;7.43;;;;;;;0.90;100.00;100005.00;5032201;28;20651;-76
2023/02/05 04:25:43;;;;;;;10.27;6.90;;;;;;;0.84;100.00;100003.31;5032347;28;20590;-76
2023/02/05 04:28:10;;;;;;;8.30;6.60;;;;;;;0.79;100.00;100007.63;5032275;28;20219;-76
2023/02/05 04:30:37;;;;;;;9.87;7.47;;;;;;;0.74;100.00;100013.72;5031645;28;20324;-76
2023/02/05 04:33:03;;;;;;;8.00;6.47;;;;;;;0.72;100.00;100016.31;5032043;28;20296;-77
2023/02/05 04:35:30;;;;;;;8.93;6.40;;;;;;;0.69;100.00;100018.06;5031957;28;20240;-76
2023/02/05 04:37:58;;;;;;;10.57;7.30;;;;;;;0.65;100.00;100013.72;5032086;28;20651;-77
2023/02/05 04:40:24;;;;;;;11.13;7.43;;;;;;;0.62;100.00;100009.38;5031790;28;20236;-76
2023/02/05 04:42:51;;;;;;;11.73;7.30;;;;;;;0.63;100.00;100011.09;5031898;28;20220;-77
2023/02/05 04:45:17;;;;;;;8.77;6.90;;;;;;;0.67;100.00;100018.06;5031147;28;20205;-77
2023/02/05 04:47:43;;;;;;;9.83;7.23;;;;;;;0.71;100.00;100025.00;5031813;28;20205;-75
2023/02/05 04:50:10;;;;;;;9.53;7.07;;;;;;;0.72;100.00;100021.53;5031326;28;20232;-75
2023/02/05 04:52:36;;;;;;;9.43;7.20;;;;;;;0.76;100.00;100018.06;5031847;28;20581;-76
2023/02/05 04:55:05;;;;;;;11.00;6.83;;;;;;;0.76;100.00;100023.28;5031634;28;20240;-76
2023/02/05 04:57:32;;;;;;;9.20;7.20;;;;;;;0.72;100.00;100016.31;5031647;28;20209;-76
2023/02/05 05:02:26;;;;;;;10.47;7.17;;;;;;;0.75;100.00;100011.09;4991263;28;20280;-76
2023/02/05 05:04:52;;;;;;;7.83;6.80;;;;;;;0.78;100.00;100018.91;4992293;28;20209;-76
2023/02/05 05:07:19;;;;;;;11.17;7.40;;;;;;;0.72;100.00;100021.53;4992470;28;20210;-76
2023/02/05 05:09:45;;;;;;;11.30;7.17;;;;;;;0.76;100.00;100028.47;4992040;28;20219;-76
2023/02/05 05:12:13;;;;;;;9.20;7.23;;;;;;;0.76;100.00;100033.69;4992470;28;20230;-76
2023/02/05 05:14:40;;;;;;;9.73;7.03;;;;;;;0.77;100.00;100035.41;4992886;28;20206;-76
2023/02/05 05:17:06;;;;;;;9.30;7.13;;;;;;;0.86;100.00;100037.16;4992292;28;20622;-75
2023/02/05 05:19:33;;;;;;;12.40;7.80;;;;;;;0.93;100.00;100031.91;4992208;28;20216;-76
2023/02/05 05:22:00;;;;;;;10.20;7.50;;;;;;;1.05;100.00;100031.03;4992371;28;20238;-76
2023/02/05 05:24:26;;;;;;;7.93;6.67;;;;;;;1.24;100.00;100036.19;4991965;28;20302;-76
2023/02/05 05:26:53;;;;;;;11.07;7.07;;;;;;;1.22;100.00;100035.34;4992303;28;20221;-76
2023/02/05 05:29:20;;;;;;;8.30;7.20;;;;;;;1.27;100.00;100035.31;4991602;28;20210;-76
2023/02/05 05:31:47;;;;;;;11.47;7.83;;;;;;;1.26;100.00;100037.09;4991997;28;20587;-76
2023/02/05 05:34:13;;;;;;;9.67;6.70;;;;;;;1.33;100.00;100033.59;4992069;28;20237;-76
2023/02/05 05:36:42;;;;;;;8.83;6.70;;;;;;;1.36;100.00;100028.34;4991746;28;20226;-76
2023/02/05 05:44:37;;;;;;;9.67;6.20;;;;;;;1.40;100.00;100032.69;4992063;28;20221;-76
2023/02/05 05:47:04;;;;;;;7.37;6.07;;;;;;;1.38;100.00;100021.41;4992094;28;20211;-76
2023/02/05 05:49:30;;;;;;;8.43;5.80;;;;;;;1.41;100.00;100021.41;4991779;28;20224;-76
2023/02/05 05:51:57;;;;;;;9.53;6.70;;;;;;;1.41;100.00;100012.72;4991808;28;20226;-76
2023/02/05 05:54:23;;;;;;;8.77;6.60;;;;;;;1.42;100.00;100009.25;4991809;28;20211;-76
2023/02/05 05:56:50;;;;;;;10.23;7.77;;;;;;;1.43;100.00;99996.22;4993091;28;20230;-76
2023/02/05 05:59:16;;;;;;;9.17;6.80;;;;;;;1.48;100.00;100002.25;4995320;28;20210;-76
2023/02/05 06:01:44;;;;;;;8.53;6.73;;;;;;;1.52;100.00;100013.53;4995485;28;20344;-76
2023/02/05 06:04:10;;;;;;;11.37;6.97;;;;;;;1.48;100.00;100011.84;4995625;28;20213;-76
2023/02/05 06:06:37;;;;;;;10.17;7.17;;;;;;;1.50;100.00;100020.50;4995745;28;20544;-76
2023/02/05 06:09:04;;;;;;;10.77;7.03;;;;;;;1.41;100.00;100020.56;4995170;28;20214;-76
2023/02/05 06:11:30;;;;;;;10.53;6.73;;;;;;;1.33;100.00;100017.97;4995482;28;20230;-76
2023/02/05 06:13:57;;;;;;;8.70;6.60;;;;;;;1.25;100.00;100021.44;4995583;28;20210;-76
2023/02/05 06:16:23;;;;;;;9.23;6.53;;;;;;;1.21;100.00;100012.78;4995416;28;20230;-75
2023/02/05 06:18:51;;;;;;;10.03;6.63;;;;;;;1.13;100.00;100014.53;4995192;28;20594;-76
2023/02/05 06:21:18;;;;;;;7.30;5.87;;;;;;;1.11;100.00;100008.44;4995084;28;20246;-76
2023/02/05 06:23:44;;;;;;;9.47;7.57;;;;;;;1.23;100.00;100011.03;4995346;28;20704;-76
2023/02/05 06:26:11;;;;;;;11.90;7.43;;;;;;;1.23;100.00;100016.25;4995630;28;20206;-75
2023/02/05 06:28:37;;;;;;;11.87;7.50;;;;;;;1.25;100.00;100009.31;4995160;28;20214;-75
2023/02/05 06:31:04;;;;;;;12.20;7.73;;;;;;;1.31;100.00;100009.28;4994890;28;20235;-76
2023/02/05 06:33:30;;;;;;;13.37;8.13;;;;;;;1.34;100.00;99996.25;4995015;28;20210;-76
2023/02/05 06:35:58;;;;;;;11.93;8.53;;;;;;;1.45;100.00;100001.41;4994835;28;20238;-75
2023/02/05 06:38:25;;;;;;;12.13;7.90;;;;;;;1.51;100.00;100004.88;4995184;28;20210;-75
2023/02/05 06:40:51;;;;;;;12.40;8.93;;;;;;;1.61;100.00;100003.09;4994918;28;20234;-76
2023/02/05 06:43:18;;;;;;;10.60;8.03;;;;;;;1.65;100.00;100000.47;4994945;28;20210;-76
2023/02/05 06:45:44;;;;;;;13.40;8.40;;;;;;;1.73;100.00;100009.09;4995022;28;20206;-77
2023/02/05 06:48:11;;;;;;;12.03;8.13;;;;;;;1.82;100.00;100009.09;4994811;28;20221;-77
2023/02/05 06:50:37;;;;;;;14.37;8.47;;;;;;;1.88;100.00;100014.25;4994149;28;20257;-76
2023/02/05 06:53:05;;;;;;;13.53;8.63;;;;;;;1.92;100.00;100016.00;4994257;28;20221;-76
2023/02/05 06:55:31;;;;;;;12.13;7.70;;;;;;;1.98;100.00;100018.56;4994619;28;20238;-76
2023/02/05 06:57:58;;;;;;;12.73;7.73;;;;;;;2.00;100.00;100016.81;4994741;28;20206;-75
2023/02/05 07:00:24;;;;;;;11.77;8.23;;;;;;;2.02;100.00;100022.03;4994194;28;20237;-77
2023/02/05 07:02:51;;;;;;;12.53;7.50;;;;;;;2.05;100.00;100022.88;4994771;28;20214;-78
2023/02/05 07:05:18;;;;;;;13.20;8.80;;;;;;;2.07;100.00;100021.09;4994789;28;20621;-76
2023/02/05 07:07:45;;;;;;;12.23;7.20;;;;;;;2.11;100.00;100022.84;4994587;28;20206;-76
2023/02/05 07:10:12;;;;;;;14.13;8.70;;;;;;;2.15;100.00;100028.91;4993607;28;20238;-78
2023/02/05 07:12:39;;;;;;;13.83;8.83;;;;;;;2.17;100.00;100037.56;4994407;28;20304;-80
2023/02/05 07:15:06;;;;;;;14.03;8.33;;;;;;;2.16;100.00;100031.50;4994409;28;20221;-77
2023/02/05 07:17:32;;;;;;;16.77;8.40;;;;;;;2.18;100.00;100028.88;4993990;28;20215;-76
2023/02/05 07:19:59;;;;;;;11.87;8.37;;;;;;;2.21;100.00;100024.50;4994226;28;20210;-75
2023/02/05 07:22:25;;;;;;;14.27;8.50;;;;;;;2.26;100.00;100033.16;4994511;28;20210;-76
2023/02/05 07:24:52;;;;;;;13.03;8.23;;;;;;;2.20;100.00;100033.19;4994351;28;20218;-76
2023/02/05 07:27:20;;;;;;;15.93;8.67;;;;;;;2.20;100.00;100020.16;4994042;28;20216;-81
2023/02/05 07:29:47;;;;;;;13.13;8.70;;;;;;;2.22;100.00;100021.03;4993831;28;20214;-75
2023/02/05 07:32:14;;;;;;;13.40;7.97;;;;;;;2.21;100.00;100008.00;4994030;28;20230;-76
2023/02/05 07:34:40;;;;;;;15.03;10.03;;;;;;;2.22;100.00;100014.94;4994019;28;20238;-76
2023/02/05 07:37:06;;;;;;;10.87;8.03;;;;;;;2.27;100.00;100011.41;4993912;28;20241;-76
2023/02/05 07:39:33;;;;;;;14.17;9.13;;;;;;;2.25;100.00;100010.56;4993470;28;20216;-76
2023/02/05 07:42:00;;;;;;;14.07;8.00;;;;;;;2.29;100.00;100012.28;4993681;28;20230;-77
2023/02/05 07:44:28;;;;;;;13.73;8.63;;;;;;;2.28;100.00;100000.09;4993659;28;20210;-75
2023/02/05 07:46:54;;;;;;;12.90;8.53;;;;;;;2.32;100.00;99996.59;4993866;28;20229;-75
2023/02/05 07:49:20;;;;;;;11.83;8.37;;;;;;;2.34;100.00;99999.22;4993554;28;20217;-75
2023/02/05 07:51:47;;;;;;;13.03;8.70;;;;;;;2.36;100.00;99995.72;4993255;28;20332;-76
2023/02/05 07:54:14;;;;;;;14.10;9.33;;;;;;;2.36;100.00;100003.53;4993619;28;20298;-75
2023/02/05 07:56:41;;;;;;;13.03;8.37;;;;;;;2.42;100.00;100006.09;4993654;28;20600;-76
2023/02/05 07:59:08;;;;;;;13.60;7.73;;;;;;;2.47;100.00;99991.28;4993032;28;20222;-76
2023/02/05 08:01:36;;;;;;;11.73;8.30;;;;;;;2.50;100.00;99991.25;4992854;28;20245;-76
2023/02/05 08:04:02;;;;;;;13.17;8.30;;;;;;;2.51;100.00;99987.75;4991043;28;20210;-77
2023/02/05 08:06:29;;;;;;;14.00;8.47;;;;;;;2.59;100.00;99985.97;4990926;28;20218;-76
2023/02/05 08:08:56;;;;;;;14.73;8.27;;;;;;;2.60;100.00;99987.69;4991012;28;20210;-77
2023/02/05 08:11:23;;;;;;;13.97;7.80;;;;;;;2.67;100.00;99989.38;4991774;28;20241;-77
2023/02/05 08:13:50;;;;;;;12.73;9.50;;;;;;;2.73;100.00;99994.53;4992361;28;20210;-77
2023/02/05 08:16:16;;;;;;;11.90;8.07;;;;;;;2.77;100.00;99993.66;4992641;28;20273;-77
2023/02/05 08:18:48;;;;;;;13.17;8.90;;;;;;;2.82;100.00;99994.44;4991345;28;20301;-76
2023/02/05 08:21:14;;;;;;;14.50;8.80;;;;;;;2.83;100.00;99990.09;4991803;28;20253;-77
2023/02/05 08:23:41;;;;;;;11.87;7.93;;;;;;;2.89;100.00;99990.03;4991926;28;20221;-77
2023/02/05 08:26:07;;;;;;;10.27;7.70;;;;;;;2.89;100.00;99996.13;4989888;28;20227;-77
2023/02/05 08:28:34;;;;;;;12.97;8.40;;;;;;;2.91;100.00;99996.09;4989379;28;20211;-76
2023/02/05 08:31:00;;;;;;;12.70;8.07;;;;;;;2.93;100.00;99992.59;4991599;28;20241;-76
2023/02/05 08:33:27;;;;;;;12.93;7.83;;;;;;;2.97;100.00;99989.09;4992453;28;20209;-77
2023/02/05 08:35:54;;;;;;;11.37;8.40;;;;;;;3.04;100.00;99987.28;4990206;28;20226;-77
2023/02/05 08:38:21;;;;;;;15.50;8.30;;;;;;;3.07;100.00;99985.50;4989220;28;20214;-76
2023/02/05 08:40:47;;;;;;;12.47;7.87;;;;;;;3.14;100.00;99983.69;4989637;28;20597;-77
2023/02/05 08:43:14;;;;;;;12.70;8.23;;;;;;;3.23;100.00;99986.19;4992133;28;20213;-76
2023/02/05 08:45:40;;;;;;;13.80;8.63;;;;;;;3.21;100.00;99983.63;4991851;28;20214;-75
2023/02/05 08:48:07;;;;;;;12.20;8.63;;;;;;;3.20;100.00;99966.22;4989404;28;20451;-74
2023/02/05 08:50:33;;;;;;;14.87;9.03;;;;;;;3.20;100.00;99974.06;4989668;28;20237;-78
2023/02/05 08:53:01;;;;;;;11.23;8.57;;;;;;;3.21;100.00;99957.50;4991224;28;20285;-77
2023/02/05 08:55:28;;;;;;;11.57;8.40;;;;;;;3.22;100.00;99948.78;4992455;28;20210;-76
2023/02/05 08:57:54;;;;;;;15.43;9.23;;;;;;;3.27;100.00;99952.19;4991124;28;20232;-77
2023/02/05 09:00:21;;;;;;;12.07;8.30;;;;;;;3.33;100.00;99943.41;4989262;28;20245;-77
2023/02/05 09:02:48;;;;;;;13.50;8.00;;;;;;;3.38;100.00;99939.88;4989738;28;20277;-77
2023/02/05 09:05:14;;;;;;;12.53;7.77;;;;;;;3.41;100.00;99934.59;4992382;28;20217;-77
2023/02/05 09:07:41;;;;;;;14.63;8.37;;;;;;;3.41;100.00;99934.59;4991994;28;20566;-76
2023/02/05 09:10:10;;;;;;;12.63;7.90;;;;;;;3.44;100.00;99938.94;4991247;28;20209;-76
2023/02/05 09:12:37;;;;;;;16.23;8.83;;;;;;;3.44;100.00;99934.56;4992210;28;20632;-75
2023/02/05 09:15:04;;;;;;;11.23;8.03;;;;;;;3.46;100.00;99938.03;4991915;28;20219;-76
2023/02/05 09:17:30;;;;;;;12.17;8.20;;;;;;;3.47;100.00;99931.91;4991961;28;20235;-74
2023/02/05 09:19:57;;;;;;;12.80;8.50;;;;;;;3.43;100.00;99924.97;4991723;28;20232;-76
2023/02/05 09:22:23;;;;;;;13.07;8.63;;;;;;;3.45;100.00;99932.81;4992005;28;20238;-78
2023/02/05 09:24:50;;;;;;;14.20;8.73;;;;;;;3.36;100.00;99923.34;4991845;28;20218;-72
2023/02/05 09:27:18;;;;;;;12.77;7.97;;;;;;;3.36;100.00;99915.50;4992150;28;20209;-75
2023/02/05 09:29:44;;;;;;;14.07;9.53;;;;;;;3.29;100.00;99903.38;4991736;28;20234;-77
2023/02/05 09:32:11;;;;;;;14.20;8.90;;;;;;;3.26;100.00;99892.13;4991518;28;20234;-76
2023/02/05 09:34:37;;;;;;;13.13;9.67;;;;;;;3.26;100.00;99893.00;4991890;28;20218;-77
2023/02/05 09:37:04;;;;;;;11.30;8.30;;;;;;;3.25;100.00;99891.22;4991588;28;20718;-76
2023/02/05 09:39:30;;;;;;;15.83;8.97;;;;;;;3.24;100.00;99891.28;4991519;28;20216;-76
2023/02/05 09:42:03;;;;;;;16.23;9.80;;;;;;;3.23;100.00;99893.00;4991915;28;20556;-80
2023/02/05 09:44:54;;;;;;;10.70;9.10;;;;;;;3.12;100.00;99896.66;4991754;28;20696;-76
2023/02/05 09:47:27;;;;;;;13.17;9.87;;;;;;;3.08;100.00;99903.66;4991803;28;20202;-76
2023/02/05 09:50:02;;;;;;;14.02;9.45;;;;;;;3.09;100.00;99904.50;4990995;28;20436;-76
2023/02/05 09:52:33;;;;;;;14.93;11.15;;;;;;;3.06;100.00;99894.94;4990516;28;20452;-77
2023/02/05 09:55:02;;;;;;;14.87;10.10;;;;;;;3.04;100.00;99896.72;4990261;28;20293;-76
2023/02/05 09:57:33;;;;;;;16.03;10.77;;;;;;;3.08;100.00;99895.81;4991101;28;20264;-78
2023/02/05 10:00:04;;;;;;;16.83;10.20;;;;;;;3.05;100.00;99888.00;4989786;28;20202;-78
2023/02/05 10:02:36;;;;;;;13.47;9.30;;;;;;;3.08;100.00;99890.59;4988084;28;20212;-78
2023/02/05 10:05:07;;;;;;;16.90;10.63;;;;;;;3.08;100.00;99882.75;4982666;28;20212;-77
2023/02/05 10:07:42;;;;;;;18.83;10.27;;;;;;;3.11;100.00;99887.94;4994651;28;20210;-78
2023/02/05 10:10:25;;;;;;;14.63;10.23;;;;;;;3.12;100.00;99881.81;4998443;28;20217;-77
2023/02/05 10:13:25;;;;;;;18.87;9.83;;;;;;;3.15;100.00;99876.56;4999449;28;20212;-77
2023/02/05 10:16:10;;;;;;;15.00;9.43;;;;;;;3.18;100.00;99878.28;4985225;28;20214;-77
2023/02/05 10:18:47;;;;;;;16.20;10.37;;;;;;;3.19;100.00;99880.84;4990884;28;20217;-78
2023/02/05 10:21:24;;;;;;;17.53;10.77;;;;;;;3.20;100.00;99882.63;5002129;28;20227;-77
2023/02/05 10:24:12;;;;;;;15.77;10.10;;;;;;;3.27;100.00;99886.88;5000566;28;20212;-77
2023/02/05 10:26:46;;;;;;;17.37;10.63;;;;;;;3.32;100.00;99885.06;4999877;28;20559;-78
2023/02/05 10:29:26;;;;;;;18.70;11.57;;;;;;;3.35;100.00;99869.34;5000781;28;20211;-78
2023/02/05 10:32:06;;;;;;;15.83;10.40;;;;;;;3.38;100.00;99871.94;4999303;28;20283;-78
2023/02/05 10:34:48;;;;;;;15.47;10.57;;;;;;;3.34;100.00;99874.56;4996285;28;20220;-78
2023/02/05 10:37:18;;;;;;;15.40;10.63;;;;;;;3.39;100.00;99864.94;4996300;28;20215;-79
2023/02/05 10:39:45;;;;;;;16.83;10.67;;;;;;;3.38;100.00;99850.16;4997515;28;20216;-78
2023/02/05 10:42:23;;;;;;;16.17;11.07;;;;;;;3.35;100.00;99850.16;4997594;28;20242;-77
2023/02/05 10:44:56;;;;;;;17.10;10.87;;;;;;;3.39;100.00;99852.75;5001858;28;20214;-77
2023/02/05 10:47:45;;;;;;;15.97;10.90;;;;;;;3.42;100.00;99852.69;5003972;28;20229;-77
2023/02/05 10:50:19;;;;;;;15.13;10.83;;;;;;;3.46;100.00;99849.16;5003851;28;20238;-79
2023/02/05 10:52:46;;;;;;;19.20;11.40;;;;;;;3.41;100.00;99840.50;5006082;28;20217;-78
2023/02/05 10:55:13;;;;;;;18.93;11.07;;;;;;;3.48;100.00;99836.91;5006252;28;20675;-79
2023/02/05 10:57:39;;;;;;;18.67;12.83;;;;;;;3.50;100.00;99837.78;4995834;28;20232;-79
2023/02/05 11:02:54;;;;;;;18.53;11.20;;;;;;;3.66;100.00;99836.66;4990384;28;20246;-76
2023/02/05 11:05:30;;;;;;;17.47;12.23;;;;;;;3.67;100.00;99833.16;4986956;28;20732;-77
2023/02/05 11:07:57;;;;;;;13.73;10.30;;;;;;;3.68;100.00;99827.03;4992629;28;20207;-77
2023/02/05 11:10:25;;;;;;;16.10;11.57;;;;;;;3.69;100.00;99825.28;4990934;28;20268;-76
2023/02/05 11:12:54;;;;;;;18.00;10.83;;;;;;;3.71;100.00;99823.50;4990981;28;20267;-75
2023/02/05 11:15:24;;;;;;;16.30;11.43;;;;;;;3.78;100.00;99820.78;4993914;28;20227;-76
2023/02/05 11:17:54;;;;;;;17.73;11.23;;;;;;;3.84;100.00;99810.22;4993733;28;20241;-76
2023/02/05 11:20:30;;;;;;;16.23;11.00;;;;;;;3.89;100.00;99811.03;4990724;28;20701;-78
2023/02/05 11:23:16;;;;;;;18.20;11.73;;;;;;;3.94;100.00;99806.59;4990533;28;20765;-75
2023/02/05 11:25:51;;;;;;;17.40;11.17;;;;;;;3.90;100.00;99799.66;4992515;28;20698;-76
2023/02/05 11:28:28;;;;;;;16.70;11.13;;;;;;;3.88;100.00;99791.00;4993187;28;20677;-77
2023/02/05 11:30:55;;;;;;;17.67;10.93;;;;;;;3.87;100.00;99793.63;4993203;28;20623;-76
2023/02/05 11:33:30;;;;;;;16.30;11.67;;;;;;;3.91;100.00;99779.63;4993444;28;20214;-76
2023/02/05 11:35:59;;;;;;;20.33;12.00;;;;;;;3.99;100.00;99782.97;4993755;28;20251;-76
2023/02/05 11:38:32;;;;;;;17.90;10.97;;;;;;;4.03;100.00;99784.66;4993127;28;20243;-77
2023/02/05 11:41:02;;;;;;;15.97;11.47;;;;;;;4.05;100.00;99788.97;4993087;28;20233;-76
2023/02/05 11:43:33;;;;;;;17.17;11.40;;;;;;;4.09;100.00;99779.31;4993057;28;20211;-76